sensor_id;sensor_type;location;lat;lon;timestamp;pressure;altitude;pressure_sealevel;temperature;humidity
16255;BME280;8235;52.198;9.904;2023-04-07T00:01:21;100912.66;;;3.56;64.48
16255;BME280;8235;52.198;9.904;2023-04-07T00:03:47;100912.94;;;3.47;63.91
16255;BME280;8235;52.198;9.904;2023-04-07T00:06:14;100909.69;;;3.39;64.09
16255;BME280;8235;52.198;9.904;2023-04-07T00:08:42;100904.63;;;3.31;65.43
16255;BME280;8235;52.198;9.904;2023-04-07T00:11:08;100910.84;;;3.29;65.30
16255;BME280;8235;52.198;9.904;2023-04-07T00:13:35;100898.63;;;3.26;65.56
16255;BME280;8235;52.198;9.904;2023-04-07T00:16:01;100901.25;;;3.26;65.71
16255;BME280;8235;52.198;9.904;2023-04-07T00:18:28;100896.00;;;3.26;65.97
16255;BME280;8235;52.198;9.904;2023-04-07T00:20:54;100895.13;;;3.26;66.55
16255;BME280;8235;52.198;9.904;2023-04-07T00:23:21;100895.09;;;3.27;66.65
16255;BME280;8235;52.198;9.904;2023-04-07T00:25:49;100896.91;;;3.25;66.37
16255;BME280;8235;52.198;9.904;2023-04-07T00:28:15;100889.91;;;3.24;66.38
16255;BME280;8235;52.198;9.904;2023-04-07T00:30:41;100894.59;;;3.14;66.10
16255;BME280;8235;52.198;9.904;2023-04-07T00:33:08;100896.72;;;3.02;66.36
16255;BME280;8235;52.198;9.904;2023-04-07T00:35:34;100899.50;;;2.96;66.60
16255;BME280;8235;52.198;9.904;2023-04-07T00:38:01;100900.41;;;2.95;67.22
16255;BME280;8235;52.198;9.904;2023-04-07T00:40:28;100895.16;;;2.95;67.18
16255;BME280;8235;52.198;9.904;2023-04-07T00:42:56;100904.78;;;2.96;67.37
16255;BME280;8235;52.198;9.904;2023-04-07T00:45:22;100903.03;;;2.95;67.59
16255;BME280;8235;52.198;9.904;2023-04-07T00:47:49;100902.16;;;2.96;67.77
16255;BME280;8235;52.198;9.904;2023-04-07T00:50:15;100899.50;;;2.96;68.18
16255;BME280;8235;52.198;9.904;2023-04-07T00:52:42;100905.59;;;2.98;68.37
16255;BME280;8235;52.198;9.904;2023-04-07T00:55:08;100897.72;;;2.98;68.59
16255;BME280;8235;52.198;9.904;2023-04-07T00:57:35;100895.91;;;3.00;68.53
16255;BME280;8235;52.198;9.904;2023-04-07T01:00:04;100892.34;;;3.01;68.61
16255;BME280;8235;52.198;9.904;2023-04-07T01:02:35;100887.09;;;3.01;68.98
16255;BME280;8235;52.198;9.904;2023-04-07T01:05:09;100882.69;;;3.01;68.32
16255;BME280;8235;52.198;9.904;2023-04-07T01:07:47;100886.19;;;3.02;68.17
16255;BME280;8235;52.198;9.904;2023-04-07T01:10:19;100888.91;;;2.99;68.55
16255;BME280;8235;52.198;9.904;2023-04-07T01:12:53;100879.31;;;2.96;67.84
16255;BME280;8235;52.198;9.904;2023-04-07T01:15:26;100881.09;;;2.96;68.00
16255;BME280;8235;52.198;9.904;2023-04-07T01:18:12;100880.22;;;2.95;68.13
16255;BME280;8235;52.198;9.904;2023-04-07T01:20:39;100884.63;;;2.95;68.52
16255;BME280;8235;52.198;9.904;2023-04-07T01:23:07;100878.53;;;2.93;68.03
16255;BME280;8235;52.198;9.904;2023-04-07T01:25:55;100882.09;;;2.92;67.85
16255;BME280;8235;52.198;9.904;2023-04-07T01:28:40;100884.72;;;2.92;68.38
16255;BME280;8235;52.198;9.904;2023-04-07T01:31:11;100880.31;;;2.92;67.57
16255;BME280;8235;52.198;9.904;2023-04-07T01:33:39;100875.09;;;2.91;67.64
16255;BME280;8235;52.198;9.904;2023-04-07T01:36:09;100880.41;;;2.89;67.29
16255;BME280;8235;52.198;9.904;2023-04-07T01:38:37;100872.63;;;2.86;67.25
16255;BME280;8235;52.198;9.904;2023-04-07T01:41:05;100882.28;;;2.86;67.88
16255;BME280;8235;52.198;9.904;2023-04-07T01:43:33;100877.91;;;2.85;67.79
16255;BME280;8235;52.198;9.904;2023-04-07T01:46:02;100880.50;;;2.86;66.74
16255;BME280;8235;52.198;9.904;2023-04-07T01:48:31;100886.66;;;2.85;67.18
16255;BME280;8235;52.198;9.904;2023-04-07T01:50:59;100885.97;;;2.78;66.29
16255;BME280;8235;52.198;9.904;2023-04-07T01:53:26;100888.78;;;2.71;66.21
16255;BME280;8235;52.198;9.904;2023-04-07T01:55:53;100888.94;;;2.66;66.17
16255;BME280;8235;52.198;9.904;2023-04-07T01:58:20;100882.13;;;2.59;66.81
16255;BME280;8235;52.198;9.904;2023-04-07T02:00:47;100891.81;;;2.57;67.18
16255;BME280;8235;52.198;9.904;2023-04-07T02:03:19;100885.69;;;2.57;66.96
16255;BME280;8235;52.198;9.904;2023-04-07T02:05:52;100892.66;;;2.58;67.80
16255;BME280;8235;52.198;9.904;2023-04-07T02:08:26;100890.88;;;2.60;67.52
16255;BME280;8235;52.198;9.904;2023-04-07T02:10:54;100886.50;;;2.59;67.67
16255;BME280;8235;52.198;9.904;2023-04-07T02:13:22;100893.50;;;2.60;68.48
16255;BME280;8235;52.198;9.904;2023-04-07T02:15:49;100882.06;;;2.61;68.36
16255;BME280;8235;52.198;9.904;2023-04-07T02:18:18;100888.19;;;2.61;68.71
16255;BME280;8235;52.198;9.904;2023-04-07T02:20:46;100886.47;;;2.60;67.85
16255;BME280;8235;52.198;9.904;2023-04-07T02:23:15;100886.53;;;2.57;67.71
16255;BME280;8235;52.198;9.904;2023-04-07T02:25:41;100874.50;;;2.50;66.81
16255;BME280;8235;52.198;9.904;2023-04-07T02:28:08;100882.56;;;2.42;67.71
16255;BME280;8235;52.198;9.904;2023-04-07T02:30:34;100887.03;;;2.39;68.59
16255;BME280;8235;52.198;9.904;2023-04-07T02:33:01;100876.56;;;2.37;68.10
16255;BME280;8235;52.198;9.904;2023-04-07T02:35:27;100887.97;;;2.36;68.94
16255;BME280;8235;52.198;9.904;2023-04-07T02:37:54;100887.22;;;2.33;68.99
16255;BME280;8235;52.198;9.904;2023-04-07T02:40:21;100892.50;;;2.31;68.07
16255;BME280;8235;52.198;9.904;2023-04-07T02:42:48;100889.09;;;2.28;68.40
16255;BME280;8235;52.198;9.904;2023-04-07T02:45:14;100886.50;;;2.26;69.18
16255;BME280;8235;52.198;9.904;2023-04-07T02:47:41;100886.53;;;2.25;69.13
16255;BME280;8235;52.198;9.904;2023-04-07T02:50:08;100890.91;;;2.24;68.99
16255;BME280;8235;52.198;9.904;2023-04-07T02:52:35;100890.03;;;2.25;69.33
16255;BME280;8235;52.198;9.904;2023-04-07T02:55:01;100876.91;;;2.24;69.04
16255;BME280;8235;52.198;9.904;2023-04-07T02:57:29;100887.44;;;2.24;69.19
16255;BME280;8235;52.198;9.904;2023-04-07T02:59:56;100892.72;;;2.22;69.40
16255;BME280;8235;52.198;9.904;2023-04-07T03:02:22;100890.97;;;2.23;69.87
16255;BME280;8235;52.198;9.904;2023-04-07T03:04:49;100884.88;;;2.21;69.86
16255;BME280;8235;52.198;9.904;2023-04-07T03:07:16;100891.91;;;2.20;69.90
16255;BME280;8235;52.198;9.904;2023-04-07T03:09:43;100891.19;;;2.14;69.40
16255;BME280;8235;52.198;9.904;2023-04-07T03:12:09;100886.94;;;2.08;69.86
16255;BME280;8235;52.198;9.904;2023-04-07T03:14:37;100887.03;;;2.05;69.80
16255;BME280;8235;52.198;9.904;2023-04-07T03:17:04;100898.47;;;2.02;70.07
16255;BME280;8235;52.198;9.904;2023-04-07T03:19:30;100885.41;;;1.99;70.15
16255;BME280;8235;52.198;9.904;2023-04-07T03:21:56;100889.91;;;1.96;70.18
16255;BME280;8235;52.198;9.904;2023-04-07T03:24:23;100894.31;;;1.94;70.15
16255;BME280;8235;52.198;9.904;2023-04-07T03:26:49;100891.72;;;1.92;70.18
16255;BME280;8235;52.198;9.904;2023-04-07T03:29:16;100898.78;;;1.90;70.55
16255;BME280;8235;52.198;9.904;2023-04-07T03:31:44;100899.69;;;1.88;70.61
16255;BME280;8235;52.198;9.904;2023-04-07T03:34:10;100890.19;;;1.82;70.57
16255;BME280;8235;52.198;9.904;2023-04-07T03:36:37;100898.19;;;1.79;71.29
16255;BME280;8235;52.198;9.904;2023-04-07T03:39:03;100889.44;;;1.79;71.18
16255;BME280;8235;52.198;9.904;2023-04-07T03:41:30;100893.84;;;1.77;71.48
16255;BME280;8235;52.198;9.904;2023-04-07T03:43:57;100892.13;;;1.76;71.57
16255;BME280;8235;52.198;9.904;2023-04-07T03:46:23;100891.25;;;1.75;71.26
16255;BME280;8235;52.198;9.904;2023-04-07T03:48:52;100895.66;;;1.74;71.98
16255;BME280;8235;52.198;9.904;2023-04-07T03:51:19;100893.94;;;1.72;71.22
16255;BME280;8235;52.198;9.904;2023-04-07T03:53:46;100903.59;;;1.71;71.37
16255;BME280;8235;52.198;9.904;2023-04-07T03:56:12;100898.38;;;1.70;71.85
16255;BME280;8235;52.198;9.904;2023-04-07T03:58:39;100902.03;;;1.63;71.40
16255;BME280;8235;52.198;9.904;2023-04-07T04:01:06;100894.28;;;1.58;71.25
16255;BME280;8235;52.198;9.904;2023-04-07T04:03:33;100902.25;;;1.54;71.19
16255;BME280;8235;52.198;9.904;2023-04-07T04:06:01;100902.31;;;1.51;71.95
16255;BME280;8235;52.198;9.904;2023-04-07T04:08:29;100904.97;;;1.49;72.24
16255;BME280;8235;52.198;9.904;2023-04-07T04:10:56;100912.88;;;1.48;71.86
16255;BME280;8235;52.198;9.904;2023-04-07T04:13:22;100909.41;;;1.46;72.32
16255;BME280;8235;52.198;9.904;2023-04-07T04:15:49;100919.94;;;1.44;71.93
16255;BME280;8235;52.198;9.904;2023-04-07T04:18:16;100915.66;;;1.42;72.66
16255;BME280;8235;52.198;9.904;2023-04-07T04:20:43;100911.28;;;1.41;72.42
16255;BME280;8235;52.198;9.904;2023-04-07T04:23:10;100910.47;;;1.38;72.66
16255;BME280;8235;52.198;9.904;2023-04-07T04:25:37;100913.97;;;1.37;72.39
16255;BME280;8235;52.198;9.904;2023-04-07T04:28:05;100915.75;;;1.35;72.70
16255;BME280;8235;52.198;9.904;2023-04-07T04:30:31;100918.44;;;1.32;72.96
16255;BME280;8235;52.198;9.904;2023-04-07T04:32:58;100918.44;;;1.32;73.05
16255;BME280;8235;52.198;9.904;2023-04-07T04:35:24;100914.16;;;1.28;73.07
16255;BME280;8235;52.198;9.904;2023-04-07T04:37:51;100913.38;;;1.25;72.93
16255;BME280;8235;52.198;9.904;2023-04-07T04:40:19;100910.78;;;1.23;73.32
16255;BME280;8235;52.198;9.904;2023-04-07T04:42:45;100922.22;;;1.21;73.68
16255;BME280;8235;52.198;9.904;2023-04-07T04:45:12;100922.25;;;1.18;73.64
16255;BME280;8235;52.198;9.904;2023-04-07T04:47:38;100922.25;;;1.18;73.79
16255;BME280;8235;52.198;9.904;2023-04-07T04:50:06;100930.16;;;1.16;73.95
16255;BME280;8235;52.198;9.904;2023-04-07T04:52:32;100937.16;;;1.16;73.98
16255;BME280;8235;52.198;9.904;2023-04-07T04:54:59;100939.78;;;1.16;73.84
16255;BME280;8235;52.198;9.904;2023-04-07T04:57:27;100936.34;;;1.14;74.18
16255;BME280;8235;52.198;9.904;2023-04-07T04:59:54;100928.50;;;1.12;74.36
16255;BME280;8235;52.198;9.904;2023-04-07T05:02:20;100934.63;;;1.11;74.35
16255;BME280;8235;52.198;9.904;2023-04-07T05:04:47;100926.78;;;1.10;74.20
16255;BME280;8235;52.198;9.904;2023-04-07T05:07:13;100935.56;;;1.09;74.24
16255;BME280;8235;52.198;9.904;2023-04-07T05:09:39;100925.13;;;1.07;74.44
16255;BME280;8235;52.198;9.904;2023-04-07T05:12:06;100934.69;;;1.08;74.49
16255;BME280;8235;52.198;9.904;2023-04-07T05:14:34;100936.50;;;1.06;74.85
16255;BME280;8235;52.198;9.904;2023-04-07T05:17:00;100940.84;;;1.07;74.57
16255;BME280;8235;52.198;9.904;2023-04-07T05:19:27;100937.31;;;1.08;74.85
16255;BME280;8235;52.198;9.904;2023-04-07T05:21:53;100939.94;;;1.08;74.73
16255;BME280;8235;52.198;9.904;2023-04-07T05:24:20;100933.78;;;1.09;74.69
16255;BME280;8235;52.198;9.904;2023-04-07T05:26:46;100945.09;;;1.13;74.87
16255;BME280;8235;52.198;9.904;2023-04-07T05:29:13;100945.03;;;1.16;75.10
16255;BME280;8235;52.198;9.904;2023-04-07T05:31:41;100935.38;;;1.18;74.94
16255;BME280;8235;52.198;9.904;2023-04-07T05:34:07;100940.50;;;1.24;75.18
16255;BME280;8235;52.198;9.904;2023-04-07T05:36:34;100940.44;;;1.27;75.06
16255;BME280;8235;52.198;9.904;2023-04-07T05:39:00;100942.06;;;1.32;75.54
16255;BME280;8235;52.198;9.904;2023-04-07T05:41:27;100941.94;;;1.38;75.63
16255;BME280;8235;52.198;9.904;2023-04-07T05:43:53;100940.03;;;1.45;75.51
16255;BME280;8235;52.198;9.904;2023-04-07T05:46:20;100946.03;;;1.52;75.67
16255;BME280;8235;52.198;9.904;2023-04-07T05:48:48;100938.00;;;1.59;75.99
16255;BME280;8235;52.198;9.904;2023-04-07T05:51:14;100948.31;;;1.67;75.91
16255;BME280;8235;52.198;9.904;2023-04-07T05:53:41;100948.13;;;1.76;75.90
16255;BME280;8235;52.198;9.904;2023-04-07T05:56:07;100945.31;;;1.84;75.58
16255;BME280;8235;52.198;9.904;2023-04-07T05:58:33;100947.78;;;1.91;75.40
16255;BME280;8235;52.198;9.904;2023-04-07T06:01:00;100951.97;;;1.98;75.77
16255;BME280;8235;52.198;9.904;2023-04-07T06:03:26;100958.84;;;2.04;75.78
16255;BME280;8235;52.198;9.904;2023-04-07T06:05:54;100960.41;;;2.13;75.57
16255;BME280;8235;52.198;9.904;2023-04-07T06:08:22;100956.69;;;2.21;76.04
16255;BME280;8235;52.198;9.904;2023-04-07T06:10:49;100962.63;;;2.29;76.16
16255;BME280;8235;52.198;9.904;2023-04-07T06:13:15;100963.25;;;2.39;75.96
16255;BME280;8235;52.198;9.904;2023-04-07T06:15:42;100970.06;;;2.48;74.98
16255;BME280;8235;52.198;9.904;2023-04-07T06:18:08;100972.47;;;2.55;75.13
16255;BME280;8235;52.198;9.904;2023-04-07T06:20:35;100974.91;;;2.64;74.80
16255;BME280;8235;52.198;9.904;2023-04-07T06:23:02;100965.88;;;2.73;73.79
16255;BME280;8235;52.198;9.904;2023-04-07T06:25:29;100963.91;;;2.83;74.00
16255;BME280;8235;52.198;9.904;2023-04-07T06:27:55;100963.63;;;2.92;74.14
16255;BME280;8235;52.198;9.904;2023-04-07T06:30:22;100958.09;;;3.02;74.16
16255;BME280;8235;52.198;9.904;2023-04-07T06:32:48;100964.81;;;3.12;73.56
16255;BME280;8235;52.198;9.904;2023-04-07T06:35:15;100969.84;;;3.22;73.38
16255;BME280;8235;52.198;9.904;2023-04-07T06:37:41;100970.44;;;3.31;72.10
16255;BME280;8235;52.198;9.904;2023-04-07T06:40:09;100983.31;;;3.40;71.32
16255;BME280;8235;52.198;9.904;2023-04-07T06:42:36;100981.38;;;3.47;71.00
16255;BME280;8235;52.198;9.904;2023-04-07T06:45:03;100985.63;;;3.53;70.90
16255;BME280;8235;52.198;9.904;2023-04-07T06:47:30;100981.00;;;3.59;71.20
16255;BME280;8235;52.198;9.904;2023-04-07T06:49:56;100986.88;;;3.69;71.19
16255;BME280;8235;52.198;9.904;2023-04-07T06:52:23;100991.88;;;3.78;71.33
16255;BME280;8235;52.198;9.904;2023-04-07T06:54:49;100985.44;;;3.88;71.30
16255;BME280;8235;52.198;9.904;2023-04-07T06:57:17;100982.41;;;4.00;71.50
16255;BME280;8235;52.198;9.904;2023-04-07T06:59:43;100987.25;;;4.14;71.51
16255;BME280;8235;52.198;9.904;2023-04-07T07:02:10;100983.28;;;4.29;72.01
16255;BME280;8235;52.198;9.904;2023-04-07T07:04:36;100988.06;;;4.44;72.34
16255;BME280;8235;52.198;9.904;2023-04-07T07:07:03;100987.50;;;4.61;72.15
16255;BME280;8235;52.198;9.904;2023-04-07T07:09:29;100995.75;;;4.76;71.39
16255;BME280;8235;52.198;9.904;2023-04-07T07:11:56;100997.06;;;4.89;69.68
16255;BME280;8235;52.198;9.904;2023-04-07T07:14:24;100993.28;;;4.97;68.13
16255;BME280;8235;52.198;9.904;2023-04-07T07:16:50;100994.91;;;5.01;67.47
16255;BME280;8235;52.198;9.904;2023-04-07T07:19:16;100996.56;;;5.03;67.09
16255;BME280;8235;52.198;9.904;2023-04-07T07:21:43;100990.38;;;5.04;67.14
16255;BME280;8235;52.198;9.904;2023-04-07T07:24:09;100990.22;;;5.09;66.95
16255;BME280;8235;52.198;9.904;2023-04-07T07:26:36;100998.84;;;5.14;66.62
16255;BME280;8235;52.198;9.904;2023-04-07T07:29:02;101007.34;;;5.22;67.30
16255;BME280;8235;52.198;9.904;2023-04-07T07:31:30;101000.72;;;5.35;67.67
16255;BME280;8235;52.198;9.904;2023-04-07T07:33:56;100997.56;;;5.49;67.83
16255;BME280;8235;52.198;9.904;2023-04-07T07:36:23;101007.56;;;5.64;67.85
16255;BME280;8235;52.198;9.904;2023-04-07T07:38:51;100998.88;;;5.84;68.06
16255;BME280;8235;52.198;9.904;2023-04-07T07:41:17;101010.50;;;6.03;67.40
16255;BME280;8235;52.198;9.904;2023-04-07T07:43:43;101000.31;;;6.16;64.99
16255;BME280;8235;52.198;9.904;2023-04-07T07:46:10;101003.38;;;6.27;64.09
16255;BME280;8235;52.198;9.904;2023-04-07T07:48:38;101010.66;;;6.44;64.53
16255;BME280;8235;52.198;9.904;2023-04-07T07:51:04;101010.91;;;6.59;63.83
16255;BME280;8235;52.198;9.904;2023-04-07T07:53:31;101005.94;;;6.72;63.28
16255;BME280;8235;52.198;9.904;2023-04-07T07:55:58;100997.53;;;6.83;62.24
16255;BME280;8235;52.198;9.904;2023-04-07T07:58:25;101007.63;;;6.95;62.14
16255;BME280;8235;52.198;9.904;2023-04-07T08:00:52;101016.03;;;7.05;61.20
16255;BME280;8235;52.198;9.904;2023-04-07T08:03:18;101017.56;;;7.10;60.25
16255;BME280;8235;52.198;9.904;2023-04-07T08:05:48;101017.22;;;7.18;59.79
16255;BME280;8235;52.198;9.904;2023-04-07T08:08:15;101025.56;;;7.29;59.73
16255;BME280;8235;52.198;9.904;2023-04-07T08:10:41;101016.00;;;7.45;59.74
16255;BME280;8235;52.198;9.904;2023-04-07T08:13:08;101013.47;;;7.62;58.63
16255;BME280;8235;52.198;9.904;2023-04-07T08:15:34;101018.72;;;7.83;57.68
16255;BME280;8235;52.198;9.904;2023-04-07T08:18:00;101015.22;;;8.01;57.58
16255;BME280;8235;52.198;9.904;2023-04-07T08:20:28;101019.44;;;8.24;56.72
16255;BME280;8235;52.198;9.904;2023-04-07T08:22:57;101020.13;;;8.46;56.26
16255;BME280;8235;52.198;9.904;2023-04-07T08:25:23;101023.69;;;8.64;55.23
16255;BME280;8235;52.198;9.904;2023-04-07T08:27:50;101023.84;;;8.78;53.75
16255;BME280;8235;52.198;9.904;2023-04-07T08:30:16;101026.84;;;8.89;53.12
16255;BME280;8235;52.198;9.904;2023-04-07T08:32:45;101020.13;;;8.99;52.22
16255;BME280;8235;52.198;9.904;2023-04-07T08:35:11;101028.22;;;9.14;53.45
16255;BME280;8235;52.198;9.904;2023-04-07T08:37:38;101016.91;;;9.27;53.48
16255;BME280;8235;52.198;9.904;2023-04-07T08:40:07;101028.69;;;9.39;51.79
16255;BME280;8235;52.198;9.904;2023-04-07T08:42:34;101030.88;;;9.48;50.83
16255;BME280;8235;52.198;9.904;2023-04-07T08:45:03;101029.59;;;9.55;50.23
16255;BME280;8235;52.198;9.904;2023-04-07T08:47:31;101021.16;;;9.64;50.91
16255;BME280;8235;52.198;9.904;2023-04-07T08:50:00;101031.03;;;9.78;49.61
16255;BME280;8235;52.198;9.904;2023-04-07T08:52:32;101035.09;;;9.85;48.60
16255;BME280;8235;52.198;9.904;2023-04-07T08:54:59;101035.59;;;9.92;49.04
16255;BME280;8235;52.198;9.904;2023-04-07T08:57:29;101032.25;;;10.04;49.16
16255;BME280;8235;52.198;9.904;2023-04-07T08:59:57;101030.63;;;10.19;49.72
16255;BME280;8235;52.198;9.904;2023-04-07T09:02:26;101030.69;;;10.33;49.18
16255;BME280;8235;52.198;9.904;2023-04-07T09:04:53;101026.31;;;10.48;48.41
16255;BME280;8235;52.198;9.904;2023-04-07T09:07:21;101018.28;;;10.63;48.48
16255;BME280;8235;52.198;9.904;2023-04-07T09:09:47;101023.59;;;10.79;47.99
16255;BME280;8235;52.198;9.904;2023-04-07T09:12:15;101020.97;;;10.93;46.34
16255;BME280;8235;52.198;9.904;2023-04-07T09:14:43;101029.38;;;11.01;45.58
16255;BME280;8235;52.198;9.904;2023-04-07T09:17:09;101021.59;;;11.12;45.22
16255;BME280;8235;52.198;9.904;2023-04-07T09:19:35;101022.38;;;11.29;45.33
16255;BME280;8235;52.198;9.904;2023-04-07T09:22:02;101026.06;;;11.42;43.67
16255;BME280;8235;52.198;9.904;2023-04-07T09:24:28;101029.00;;;11.52;43.24
16255;BME280;8235;52.198;9.904;2023-04-07T09:27:09;101023.97;;;11.61;42.90
16255;BME280;8235;52.198;9.904;2023-04-07T09:29:37;101018.16;;;11.69;42.53
16255;BME280;8235;52.198;9.904;2023-04-07T09:32:05;101026.19;;;11.83;42.04
16255;BME280;8235;52.198;9.904;2023-04-07T09:34:33;101019.31;;;11.93;41.54
16255;BME280;8235;52.198;9.904;2023-04-07T09:37:00;101026.28;;;11.96;40.37
16255;BME280;8235;52.198;9.904;2023-04-07T09:39:28;101019.03;;;11.98;40.77
16255;BME280;8235;52.198;9.904;2023-04-07T09:41:54;101018.81;;;12.01;40.49
16255;BME280;8235;52.198;9.904;2023-04-07T09:44:22;101018.72;;;12.02;39.76
16255;BME280;8235;52.198;9.904;2023-04-07T09:46:50;101016.28;;;11.99;39.64
16255;BME280;8235;52.198;9.904;2023-04-07T09:49:18;101024.28;;;11.99;39.63
16255;BME280;8235;52.198;9.904;2023-04-07T09:51:54;101022.34;;;12.01;39.24
16255;BME280;8235;52.198;9.904;2023-04-07T09:54:34;101022.06;;;12.06;39.62
16255;BME280;8235;52.198;9.904;2023-04-07T09:57:02;101018.06;;;12.13;39.40
16255;BME280;8235;52.198;9.904;2023-04-07T09:59:30;101020.31;;;12.19;39.18
16255;BME280;8235;52.198;9.904;2023-04-07T10:01:57;101024.50;;;12.23;38.95
16255;BME280;8235;52.198;9.904;2023-04-07T10:04:25;101020.97;;;12.23;38.53
16255;BME280;8235;52.198;9.904;2023-04-07T10:06:54;101014.69;;;12.24;39.21
16255;BME280;8235;52.198;9.904;2023-04-07T10:09:22;101022.31;;;12.30;39.01
16255;BME280;8235;52.198;9.904;2023-04-07T10:11:49;101023.75;;;12.35;38.57
16255;BME280;8235;52.198;9.904;2023-04-07T10:14:17;101022.75;;;12.36;38.83
16255;BME280;8235;52.198;9.904;2023-04-07T10:16:45;101025.22;;;12.39;38.97
16255;BME280;8235;52.198;9.904;2023-04-07T10:19:12;101018.66;;;12.45;39.49
16255;BME280;8235;52.198;9.904;2023-04-07T10:21:41;101024.66;;;12.48;39.68
16255;BME280;8235;52.198;9.904;2023-04-07T10:24:16;101020.06;;;12.50;39.31
16255;BME280;8235;52.198;9.904;2023-04-07T10:26:50;101030.19;;;12.45;38.48
16255;BME280;8235;52.198;9.904;2023-04-07T10:29:18;101021.41;;;12.43;38.43
16255;BME280;8235;52.198;9.904;2023-04-07T10:31:46;101033.91;;;12.43;38.52
16255;BME280;8235;52.198;9.904;2023-04-07T10:34:13;101030.38;;;12.42;38.09
16255;BME280;8235;52.198;9.904;2023-04-07T10:37:11;101029.53;;;12.42;38.88
16255;BME280;8235;52.198;9.904;2023-04-07T10:39:38;101032.97;;;12.44;38.58
16255;BME280;8235;52.198;9.904;2023-04-07T10:42:05;101031.50;;;12.52;38.92
16255;BME280;8235;52.198;9.904;2023-04-07T10:44:45;101031.09;;;12.59;38.56
16255;BME280;8235;52.198;9.904;2023-04-07T10:47:13;101028.13;;;12.63;38.89
16255;BME280;8235;52.198;9.904;2023-04-07T10:50:13;101028.38;;;12.73;38.58
16255;BME280;8235;52.198;9.904;2023-04-07T10:52:42;101038.75;;;12.77;38.64
16255;BME280;8235;52.198;9.904;2023-04-07T10:55:28;101034.84;;;12.83;38.49
16255;BME280;8235;52.198;9.904;2023-04-07T10:58:13;101030.03;;;12.88;38.87
16255;BME280;8235;52.198;9.904;2023-04-07T11:00:40;101036.13;;;12.90;38.07
16255;BME280;8235;52.198;9.904;2023-04-07T11:03:12;101035.38;;;12.88;37.87
16255;BME280;8235;52.198;9.904;2023-04-07T11:05:40;101034.44;;;12.89;37.66
16255;BME280;8235;52.198;9.904;2023-04-07T11:08:12;101033.34;;;12.92;37.24
16255;BME280;8235;52.198;9.904;2023-04-07T11:10:40;101030.75;;;12.90;36.31
16255;BME280;8235;52.198;9.904;2023-04-07T11:13:13;101030.75;;;12.90;36.92
16255;BME280;8235;52.198;9.904;2023-04-07T11:15:40;101028.75;;;12.94;37.38
16255;BME280;8235;52.198;9.904;2023-04-07T11:18:12;101035.72;;;12.96;36.89
16255;BME280;8235;52.198;9.904;2023-04-07T11:20:44;101037.44;;;12.97;36.84
16255;BME280;8235;52.198;9.904;2023-04-07T11:23:12;101030.81;;;13.03;37.13
16255;BME280;8235;52.198;9.904;2023-04-07T11:25:41;101031.34;;;13.08;36.87
16255;BME280;8235;52.198;9.904;2023-04-07T11:28:09;101032.00;;;13.11;36.37
16255;BME280;8235;52.198;9.904;2023-04-07T11:30:36;101036.13;;;13.17;36.72
16255;BME280;8235;52.198;9.904;2023-04-07T11:33:03;101025.13;;;13.22;36.55
16255;BME280;8235;52.198;9.904;2023-04-07T11:35:29;101024.91;;;13.25;36.19
16255;BME280;8235;52.198;9.904;2023-04-07T11:37:57;101035.81;;;13.22;37.11
16255;BME280;8235;52.198;9.904;2023-04-07T11:40:32;101030.47;;;13.22;36.25
16255;BME280;8235;52.198;9.904;2023-04-07T11:43:00;101046.63;;;13.20;36.62
16255;BME280;8235;52.198;9.904;2023-04-07T11:45:27;101038.38;;;13.23;36.84
16255;BME280;8235;52.198;9.904;2023-04-07T11:47:53;101028.31;;;13.27;36.44
16255;BME280;8235;52.198;9.904;2023-04-07T11:50:38;101030.88;;;13.28;36.51
16255;BME280;8235;52.198;9.904;2023-04-07T11:53:05;101034.97;;;13.34;37.44
16255;BME280;8235;52.198;9.904;2023-04-07T11:55:33;101028.34;;;13.39;36.91
16255;BME280;8235;52.198;9.904;2023-04-07T11:58:05;101023.00;;;13.39;36.90
16255;BME280;8235;52.198;9.904;2023-04-07T12:00:34;101029.22;;;13.40;36.65
16255;BME280;8235;52.198;9.904;2023-04-07T12:03:08;101033.50;;;13.42;36.94
16255;BME280;8235;52.198;9.904;2023-04-07T12:05:41;101028.13;;;13.42;36.93
16255;BME280;8235;52.198;9.904;2023-04-07T12:08:08;101034.56;;;13.40;36.30
16255;BME280;8235;52.198;9.904;2023-04-07T12:10:36;101032.09;;;13.37;36.59
16255;BME280;8235;52.198;9.904;2023-04-07T12:13:05;101031.13;;;13.38;36.60
16255;BME280;8235;52.198;9.904;2023-04-07T12:15:31;101028.75;;;13.33;36.88
16255;BME280;8235;52.198;9.904;2023-04-07T12:17:58;101032.28;;;13.34;37.05
16255;BME280;8235;52.198;9.904;2023-04-07T12:20:25;101031.03;;;13.39;37.58
16255;BME280;8235;52.198;9.904;2023-04-07T12:22:52;101030.69;;;13.44;38.01
16255;BME280;8235;52.198;9.904;2023-04-07T12:25:18;101025.97;;;13.47;37.74
16255;BME280;8235;52.198;9.904;2023-04-07T12:27:46;101027.81;;;13.47;37.49
16255;BME280;8235;52.198;9.904;2023-04-07T12:30:13;101030.25;;;13.50;37.83
16255;BME280;8235;52.198;9.904;2023-04-07T12:32:39;101030.06;;;13.53;37.99
16255;BME280;8235;52.198;9.904;2023-04-07T12:35:06;101029.31;;;13.51;37.34
16255;BME280;8235;52.198;9.904;2023-04-07T12:37:32;101025.78;;;13.50;37.90
16255;BME280;8235;52.198;9.904;2023-04-07T12:39:59;101028.34;;;13.52;37.69
16255;BME280;8235;52.198;9.904;2023-04-07T12:42:25;101038.41;;;13.48;37.25
16255;BME280;8235;52.198;9.904;2023-04-07T12:44:53;101038.50;;;13.47;37.53
16255;BME280;8235;52.198;9.904;2023-04-07T12:47:20;101039.47;;;13.46;37.22
16255;BME280;8235;52.198;9.904;2023-04-07T12:49:47;101035.94;;;13.45;37.46
16255;BME280;8235;52.198;9.904;2023-04-07T12:52:13;101028.13;;;13.42;37.01
16255;BME280;8235;52.198;9.904;2023-04-07T12:54:40;101028.34;;;13.39;38.14
16255;BME280;8235;52.198;9.904;2023-04-07T12:57:08;101030.16;;;13.39;38.10
16255;BME280;8235;52.198;9.904;2023-04-07T12:59:35;101030.06;;;13.40;37.76
16255;BME280;8235;52.198;9.904;2023-04-07T13:02:03;101021.94;;;13.42;37.69
16255;BME280;8235;52.198;9.904;2023-04-07T13:04:29;101027.03;;;13.45;38.01
16255;BME280;8235;52.198;9.904;2023-04-07T13:06:56;101019.66;;;13.48;37.63
16255;BME280;8235;52.198;9.904;2023-04-07T13:09:26;101027.38;;;13.53;37.61
16255;BME280;8235;52.198;9.904;2023-04-07T13:11:53;101030.81;;;13.55;37.03